createdAt,value
2018-07-24T00:02:19.997Z,99924.59
2018-07-24T00:04:47.573Z,99924.91
2018-07-24T00:07:15.145Z,99928.54
2018-07-24T00:09:42.949Z,99927.97
2018-07-24T00:12:10.537Z,99928.98
2018-07-24T00:14:38.077Z,99922.56
2018-07-24T00:17:05.645Z,99915.67
2018-07-24T00:19:33.229Z,99918.88
2018-07-24T00:22:00.784Z,99918.84
2018-07-24T00:24:28.484Z,99919.34
2018-07-24T00:26:56.052Z,99918.98
2018-07-24T00:29:23.580Z,99916.48
2018-07-24T00:31:51.126Z,99909.25
2018-07-24T00:34:19.220Z,99919.74
2018-07-24T00:36:46.792Z,99914.33
2018-07-24T00:39:14.383Z,99914.89
2018-07-24T00:41:41.965Z,99912.65
2018-07-24T00:44:09.537Z,99909.00
2018-07-24T00:46:37.085Z,99920.15
2018-07-24T00:49:04.666Z,99919.03
2018-07-24T00:51:32.251Z,99916.73
2018-07-24T00:53:59.778Z,99917.08
2018-07-24T00:56:27.380Z,99915.36
2018-07-24T00:58:54.933Z,99911.37
2018-07-24T01:01:22.569Z,99904.35
2018-07-24T01:03:50.097Z,99902.90
2018-07-24T01:06:17.702Z,99907.85
2018-07-24T01:08:45.218Z,99904.02
2018-07-24T01:11:12.759Z,99902.39
2018-07-24T01:13:40.341Z,99909.73
2018-07-24T01:16:07.860Z,99908.64
2018-07-24T01:18:35.408Z,99911.46
2018-07-24T01:21:03.034Z,99912.72
2018-07-24T01:23:30.604Z,99912.88
2018-07-24T01:25:58.182Z,99910.70
2018-07-24T01:28:25.742Z,99913.83
2018-07-24T01:30:53.316Z,99910.48
2018-07-24T01:33:20.841Z,99903.52
2018-07-24T01:35:48.391Z,99899.72
2018-07-24T01:38:15.966Z,99906.08
2018-07-24T01:40:43.485Z,99906.03
2018-07-24T01:43:11.071Z,99898.59
2018-07-24T01:45:38.593Z,99894.70
2018-07-24T01:48:06.387Z,99898.27
2018-07-24T01:50:34.010Z,99902.27
2018-07-24T01:53:01.603Z,99897.98
2018-07-24T01:55:29.190Z,99899.38
2018-07-24T01:57:56.772Z,99901.72
2018-07-24T02:00:25.137Z,99898.16
2018-07-24T02:02:52.705Z,99904.02
2018-07-24T02:05:20.268Z,99899.80
2018-07-24T02:07:47.802Z,99906.69
2018-07-24T02:10:15.382Z,99905.36
2018-07-24T02:12:42.956Z,99904.58
2018-07-24T02:15:10.495Z,99900.18
2018-07-24T02:17:38.063Z,99910.52
2018-07-24T02:20:05.869Z,99899.30
2018-07-24T02:22:33.406Z,99897.38
2018-07-24T02:25:01.197Z,99901.48
2018-07-24T02:27:28.840Z,99898.72
2018-07-24T02:29:56.602Z,99896.02
2018-07-24T02:32:24.175Z,99896.94
2018-07-24T02:34:51.768Z,99894.17
2018-07-24T02:37:19.342Z,99897.22
2018-07-24T02:39:46.852Z,99895.45
2018-07-24T02:42:14.413Z,99905.38
2018-07-24T02:44:41.987Z,99897.02
2018-07-24T02:47:09.528Z,99901.67
2018-07-24T02:49:37.070Z,99897.95
2018-07-24T02:52:04.722Z,99901.77
2018-07-24T02:54:32.321Z,99899.23
2018-07-24T02:57:00.873Z,99898.36
2018-07-24T02:59:28.505Z,99906.23
2018-07-24T03:01:56.075Z,99905.10
2018-07-24T03:04:23.635Z,99907.27
2018-07-24T03:06:51.156Z,99910.52
2018-07-24T03:09:18.797Z,99908.05
2018-07-24T03:11:46.396Z,99905.64
2018-07-24T03:14:13.975Z,99900.78
2018-07-24T03:16:41.543Z,99901.86
2018-07-24T03:19:09.126Z,99900.97
2018-07-24T03:21:37.448Z,99903.16
2018-07-24T03:24:05.060Z,99904.76
2018-07-24T03:26:32.629Z,99906.39
2018-07-24T03:29:00.356Z,99910.67
2018-07-24T03:31:29.491Z,99913.70
2018-07-24T03:33:57.050Z,99919.36
2018-07-24T03:36:24.748Z,99924.14
2018-07-24T03:38:53.283Z,99926.14
2018-07-24T03:41:20.843Z,99928.80
2018-07-24T03:43:48.410Z,99929.23
2018-07-24T03:46:16.006Z,99917.55
2018-07-24T03:48:43.583Z,99926.11
2018-07-24T03:51:11.188Z,99925.11
2018-07-24T03:53:38.762Z,99926.11
2018-07-24T03:56:06.834Z,99932.22
2018-07-24T03:58:34.421Z,99938.01
2018-07-24T04:01:01.977Z,99932.84
2018-07-24T04:03:29.502Z,99935.97
2018-07-24T04:05:57.093Z,99941.41
2018-07-24T04:08:24.635Z,99934.23
2018-07-24T04:10:52.169Z,99939.17
2018-07-24T04:13:19.740Z,99939.63
2018-07-24T04:15:47.277Z,99938.58
2018-07-24T04:18:15.896Z,99946.05
2018-07-24T04:20:43.453Z,99945.05
2018-07-24T04:23:11.021Z,99941.57
2018-07-24T04:25:38.562Z,99931.23
2018-07-24T04:28:06.154Z,99942.50
2018-07-24T04:30:33.760Z,99941.44
2018-07-24T04:33:01.310Z,99942.35
2018-07-24T04:35:28.914Z,99942.22
2018-07-24T04:37:56.497Z,99939.77
2018-07-24T04:40:24.099Z,99938.69
2018-07-24T04:42:51.829Z,99950.52
2018-07-24T04:45:19.373Z,99943.02
2018-07-24T04:47:46.925Z,99940.23
2018-07-24T04:50:14.486Z,99940.30
2018-07-24T04:52:42.035Z,99935.83
2018-07-24T04:55:09.587Z,99940.27
2018-07-24T04:57:37.169Z,99940.33
2018-07-24T05:00:04.844Z,99940.37
2018-07-24T05:02:32.525Z,99939.53
2018-07-24T05:05:00.022Z,99936.03
2018-07-24T05:07:27.542Z,99939.13
2018-07-24T05:09:55.335Z,99942.13
2018-07-24T05:12:22.931Z,99939.67
2018-07-24T05:14:50.664Z,99937.44
2018-07-24T05:17:18.226Z,99942.02
2018-07-24T05:19:45.757Z,99937.25
2018-07-24T05:22:13.822Z,99930.14
2018-07-24T05:24:41.417Z,99935.68
2018-07-24T05:27:08.977Z,99942.51
2018-07-24T05:29:36.564Z,99943.27
2018-07-24T05:32:04.210Z,99946.00
2018-07-24T05:34:32.380Z,99943.14
2018-07-24T05:36:59.937Z,99944.12
2018-07-24T05:39:27.471Z,99948.17
2018-07-24T05:41:55.030Z,99950.02
2018-07-24T05:44:22.626Z,99942.07
2018-07-24T05:46:50.173Z,99940.20
2018-07-24T05:49:17.710Z,99952.34
2018-07-24T05:51:45.315Z,99954.41
2018-07-24T05:54:12.845Z,99945.77
2018-07-24T05:56:40.365Z,99956.03
2018-07-24T05:59:07.901Z,99950.33
2018-07-24T06:01:35.479Z,99950.51
2018-07-24T06:04:03.073Z,99953.83
2018-07-24T06:06:30.695Z,99953.63
2018-07-24T06:08:58.254Z,99958.06
2018-07-24T06:11:25.773Z,99959.20
2018-07-24T06:13:53.320Z,99958.05
2018-07-24T06:16:20.858Z,99959.12
2018-07-24T06:18:48.400Z,99959.38
2018-07-24T06:21:15.993Z,99955.05
2018-07-24T06:23:43.696Z,99956.06
2018-07-24T06:26:11.240Z,99958.70
2018-07-24T06:28:38.840Z,99953.63
2018-07-24T06:31:06.420Z,99959.54
2018-07-24T06:33:33.995Z,99949.36
2018-07-24T06:36:01.554Z,99954.00
2018-07-24T06:38:29.143Z,99951.45
2018-07-24T06:40:56.719Z,99954.94
2018-07-24T06:43:24.369Z,99957.59
2018-07-24T06:45:52.258Z,99961.23
2018-07-24T06:48:19.790Z,99964.17
2018-07-24T06:50:47.334Z,99968.91
2018-07-24T06:53:14.880Z,99967.09
2018-07-24T06:55:42.472Z,99959.86
2018-07-24T06:58:10.048Z,99956.66
2018-07-24T07:00:37.742Z,99959.26
2018-07-24T07:03:05.520Z,99956.28
2018-07-24T07:05:33.148Z,99957.27
2018-07-24T07:08:01.199Z,99957.52
2018-07-24T07:10:28.892Z,99960.00
2018-07-24T07:12:56.645Z,99957.73
2018-07-24T07:15:24.303Z,99962.40
2018-07-24T07:17:51.881Z,99959.04
2018-07-24T07:20:19.405Z,99961.09
2018-07-24T07:22:47.105Z,99964.11
2018-07-24T07:25:14.673Z,99961.56
2018-07-24T07:27:42.243Z,99953.63
2018-07-24T07:30:09.899Z,99950.70
2018-07-24T07:32:37.556Z,99945.69
2018-07-24T07:35:05.296Z,99944.97
2018-07-24T07:37:32.898Z,99943.60
2018-07-24T07:40:00.523Z,99937.54
2018-07-24T07:42:28.266Z,99939.80
2018-07-24T07:44:55.854Z,99941.88
2018-07-24T07:47:23.466Z,99935.98
2018-07-24T07:49:51.097Z,99937.14
2018-07-24T07:52:18.660Z,99928.05
2018-07-24T07:54:46.550Z,99934.16
2018-07-24T07:57:14.122Z,99932.56
2018-07-24T07:59:41.622Z,99935.66
2018-07-24T08:02:09.218Z,99931.25
2018-07-24T08:04:36.772Z,99931.68
2018-07-24T08:07:04.502Z,99932.89
2018-07-24T08:09:32.072Z,99925.72
2018-07-24T08:11:59.847Z,99927.75
2018-07-24T08:14:27.402Z,99929.80
2018-07-24T08:16:54.983Z,99929.97
2018-07-24T08:19:22.625Z,99926.03
2018-07-24T08:21:50.263Z,99924.34
2018-07-24T08:24:17.807Z,99923.73
2018-07-24T08:26:45.377Z,99926.91
2018-07-24T08:29:12.949Z,99917.36
2018-07-24T08:31:40.597Z,99917.06
2018-07-24T08:34:08.253Z,99915.31
2018-07-24T08:36:35.847Z,99911.15
2018-07-24T08:39:08.024Z,99915.12
2018-07-24T08:41:35.612Z,99917.53
2018-07-24T08:44:03.289Z,99926.64
2018-07-24T08:46:30.862Z,99916.33
2018-07-24T08:48:58.445Z,99916.22
2018-07-24T08:51:26.024Z,99912.17
2018-07-24T08:53:53.880Z,99909.43
2018-07-24T08:56:21.196Z,99906.80
2018-07-24T08:58:48.731Z,99908.08
2018-07-24T09:01:16.329Z,99903.33
2018-07-24T09:03:43.903Z,99904.25
2018-07-24T09:06:11.493Z,99904.34
2018-07-24T09:08:39.074Z,99897.41
2018-07-24T09:11:07.115Z,99897.97
2018-07-24T09:13:34.724Z,99900.33
2018-07-24T09:16:02.366Z,99898.75
2018-07-24T09:18:29.912Z,99898.52
2018-07-24T09:20:57.506Z,99897.88
2018-07-24T09:23:25.060Z,99896.70
2018-07-24T09:25:52.610Z,99897.81
2018-07-24T09:28:20.182Z,99895.80
2018-07-24T09:30:47.786Z,99895.83
2018-07-24T09:33:15.513Z,99890.70
2018-07-24T09:35:43.079Z,99890.73
2018-07-24T09:38:10.848Z,99888.38
2018-07-24T09:40:38.472Z,99885.85
2018-07-24T09:43:06.086Z,99882.04
2018-07-24T09:45:33.697Z,99884.10
2018-07-24T09:48:01.241Z,99875.30
2018-07-24T09:50:28.945Z,99885.00
2018-07-24T09:52:56.515Z,99877.80
2018-07-24T09:55:24.085Z,99872.81
2018-07-24T09:57:52.110Z,99876.05
2018-07-24T10:00:24.331Z,99878.52
2018-07-24T10:02:51.919Z,99879.77
2018-07-24T10:05:26.290Z,99872.69
2018-07-24T10:07:53.818Z,99862.41
2018-07-24T10:10:21.447Z,99864.85
2018-07-24T10:12:49.145Z,99864.49
2018-07-24T10:15:16.621Z,99861.33
2018-07-24T10:17:44.161Z,99866.39
2018-07-24T10:20:11.939Z,99855.98
2018-07-24T10:22:39.706Z,99853.76
2018-07-24T10:25:07.309Z,99853.78
2018-07-24T10:27:34.977Z,99854.02
2018-07-24T10:30:02.617Z,99855.09
2018-07-24T10:32:30.244Z,99850.90
2018-07-24T10:34:57.873Z,99846.44
2018-07-24T10:37:25.491Z,99849.39
2018-07-24T10:39:53.114Z,99840.80
2018-07-24T10:42:20.776Z,99843.27
2018-07-24T10:44:48.414Z,99848.47
2018-07-24T10:47:16.055Z,99839.00
2018-07-24T10:49:43.674Z,99839.61
2018-07-24T10:52:11.258Z,99833.05
2018-07-24T10:54:38.920Z,99829.98
2018-07-24T10:57:06.477Z,99827.81
2018-07-24T10:59:33.998Z,99822.01
2018-07-24T11:02:01.579Z,99820.20
2018-07-24T11:04:29.215Z,99827.12
2018-07-24T11:06:56.961Z,99821.28
2018-07-24T11:09:24.564Z,99819.06
2018-07-24T11:11:52.213Z,99814.25
2018-07-24T11:14:20.395Z,99817.42
2018-07-24T11:16:47.965Z,99816.60
2018-07-24T11:19:15.563Z,99812.01
2018-07-24T11:21:43.137Z,99803.39
2018-07-24T11:24:10.728Z,99798.31
2018-07-24T11:26:38.338Z,99804.23
2018-07-24T11:29:06.000Z,99798.88
2018-07-24T11:31:33.570Z,99794.91
2018-07-24T11:34:01.190Z,99795.05
2018-07-24T11:36:28.850Z,99797.42
2018-07-24T11:38:56.516Z,99796.23
2018-07-24T11:41:24.180Z,99791.77
2018-07-24T11:43:51.794Z,99788.73
2018-07-24T11:46:19.378Z,99787.13
2018-07-24T11:48:47.053Z,99786.76
2018-07-24T11:51:14.681Z,99782.69
2018-07-24T11:53:42.217Z,99787.83
2018-07-24T11:56:09.861Z,99783.27
2018-07-24T11:58:37.422Z,99778.66
2018-07-24T12:01:05.018Z,99779.95
2018-07-24T12:03:32.716Z,99774.64
2018-07-24T12:06:00.281Z,99775.13
2018-07-24T12:08:27.969Z,99781.27
2018-07-24T12:10:55.775Z,99769.23
2018-07-24T12:13:23.471Z,99771.28
2018-07-24T12:15:51.189Z,99769.27
2018-07-24T12:18:19.897Z,99777.03
2018-07-24T12:20:47.610Z,99769.28
2018-07-24T12:23:15.174Z,99764.76
2018-07-24T12:25:42.768Z,99771.02
2018-07-24T12:28:10.654Z,99766.95
2018-07-24T12:30:39.417Z,99762.86
2018-07-24T12:33:07.030Z,99755.52
2018-07-24T12:35:34.675Z,99760.11
2018-07-24T12:38:02.451Z,99749.73
2018-07-24T12:40:30.002Z,99758.14
2018-07-24T12:42:57.578Z,99758.83
2018-07-24T12:45:25.194Z,99761.15
2018-07-24T12:47:52.763Z,99761.07
2018-07-24T12:50:20.378Z,99762.52
2018-07-24T12:52:47.967Z,99754.63
2018-07-24T12:55:15.541Z,99752.13
2018-07-24T12:57:43.108Z,99757.22
2018-07-24T13:00:10.718Z,99755.66
2018-07-24T13:02:38.327Z,99751.01
2018-07-24T13:05:05.954Z,99753.05
2018-07-24T13:07:33.544Z,99747.16
2018-07-24T13:10:01.233Z,99749.40
2018-07-24T13:12:28.717Z,99743.44
2018-07-24T13:14:56.251Z,99742.81
2018-07-24T13:17:23.861Z,99727.00
2018-07-24T13:19:51.946Z,99739.36
2018-07-24T13:22:19.537Z,99741.82
2018-07-24T13:24:47.101Z,99721.48
2018-07-24T13:27:14.673Z,99735.09
2018-07-24T13:29:42.287Z,99734.11
2018-07-24T13:32:10.061Z,99728.84
2018-07-24T13:34:37.466Z,99723.94
2018-07-24T13:37:05.050Z,99723.74
2018-07-24T13:39:32.634Z,99726.68
2018-07-24T13:42:00.228Z,99720.63
2018-07-24T13:44:27.794Z,99709.76
2018-07-24T13:46:55.385Z,99702.78
2018-07-24T13:49:22.988Z,99704.30
2018-07-24T13:51:50.615Z,99705.89
2018-07-24T13:54:18.406Z,99705.89
2018-07-24T13:56:46.003Z,99698.34
2018-07-24T13:59:13.593Z,99702.22
2018-07-24T14:01:41.163Z,99694.59
2018-07-24T14:04:08.925Z,99696.83
2018-07-24T14:06:36.517Z,99693.38
2018-07-24T14:09:07.238Z,99694.97
2018-07-24T14:11:34.859Z,99702.44
2018-07-24T14:14:02.454Z,99699.48
2018-07-24T14:16:30.037Z,99700.28
2018-07-24T14:18:57.591Z,99693.25
2018-07-24T14:21:25.209Z,99690.64
2018-07-24T14:23:52.968Z,99690.00
2018-07-24T14:26:20.556Z,99693.79
2018-07-24T14:28:48.155Z,99686.86
2018-07-24T14:31:15.823Z,99683.38
2018-07-24T14:33:43.432Z,99672.79
2018-07-24T14:36:10.985Z,99677.12
2018-07-24T14:38:38.567Z,99672.54
2018-07-24T14:41:06.364Z,99675.98
2018-07-24T14:43:34.112Z,99672.42
2018-07-24T14:46:01.777Z,99675.95
2018-07-24T14:48:29.639Z,99670.70
2018-07-24T14:50:57.238Z,99671.16
2018-07-24T14:53:31.654Z,99668.30
2018-07-24T14:55:59.251Z,99668.55
2018-07-24T14:58:26.802Z,99672.07
2018-07-24T15:00:54.449Z,99660.55
2018-07-24T15:03:22.093Z,99664.21
2018-07-24T15:05:49.643Z,99658.40
2018-07-24T15:08:17.246Z,99653.13
2018-07-24T15:10:44.875Z,99654.60
2018-07-24T15:13:12.509Z,99657.92
2018-07-24T15:15:40.101Z,99660.51
2018-07-24T15:18:07.678Z,99655.30
2018-07-24T15:20:35.376Z,99654.83
2018-07-24T15:23:02.985Z,99653.84
2018-07-24T15:25:30.600Z,99652.81
2018-07-24T15:27:58.142Z,99651.44
2018-07-24T15:30:25.856Z,99645.23
2018-07-24T15:32:53.444Z,99644.59
2018-07-24T15:35:21.052Z,99639.86
2018-07-24T15:37:48.737Z,99642.48
2018-07-24T15:40:16.286Z,99642.33
2018-07-24T15:42:43.900Z,99642.78
2018-07-24T15:45:11.418Z,99643.17
2018-07-24T15:47:39.023Z,99636.77
2018-07-24T15:50:06.729Z,99632.05
2018-07-24T15:52:34.387Z,99624.41
2018-07-24T15:55:01.981Z,99625.78
2018-07-24T15:57:29.562Z,99626.97
2018-07-24T15:59:57.147Z,99621.73
2018-07-24T16:02:25.130Z,99625.23
2018-07-24T16:04:52.738Z,99626.25
2018-07-24T16:07:20.394Z,99618.91
2018-07-24T16:09:48.004Z,99621.44
2018-07-24T16:12:15.571Z,99621.30
2018-07-24T16:14:43.127Z,99621.84
2018-07-24T16:17:10.901Z,99624.69
2018-07-24T16:19:39.348Z,99631.71
2018-07-24T16:22:07.311Z,99623.88
2018-07-24T16:24:35.684Z,99623.77
2018-07-24T16:27:03.338Z,99618.73
2018-07-24T16:29:30.976Z,99617.91
2018-07-24T16:31:58.800Z,99620.37
2018-07-24T16:34:26.436Z,99609.52
2018-07-24T16:36:54.782Z,99617.84
2018-07-24T16:39:22.398Z,99614.06
2018-07-24T16:41:50.256Z,99612.31
2018-07-24T16:44:17.974Z,99619.41
2018-07-24T16:46:45.671Z,99615.20
2018-07-24T16:49:13.339Z,99614.82
2018-07-24T16:51:41.040Z,99613.74
2018-07-24T16:54:08.857Z,99615.98
2018-07-24T16:56:36.741Z,99617.27
2018-07-24T16:59:04.457Z,99616.12
2018-07-24T17:01:32.141Z,99617.89
2018-07-24T17:03:59.827Z,99613.25
2018-07-24T17:06:27.425Z,99614.12
2018-07-24T17:08:55.100Z,99609.23
2018-07-24T17:11:22.725Z,99612.13
2018-07-24T17:13:50.423Z,99613.55
2018-07-24T17:16:18.360Z,99622.27
2018-07-24T17:18:46.845Z,99624.30
2018-07-24T17:21:14.451Z,99611.72
2018-07-24T17:23:42.020Z,99615.61
2018-07-24T17:26:09.922Z,99622.16
2018-07-24T17:28:37.462Z,99619.81
2018-07-24T17:31:05.478Z,99615.67
2018-07-24T17:33:33.084Z,99626.27
2018-07-24T17:36:01.332Z,99623.50
2018-07-24T17:38:29.018Z,99625.27
2018-07-24T17:40:56.777Z,99622.91
2018-07-24T17:43:24.513Z,99629.22
2018-07-24T17:45:52.112Z,99627.58
2018-07-24T17:48:19.838Z,99632.38
2018-07-24T17:50:47.561Z,99629.08
2018-07-24T17:53:15.280Z,99635.86
2018-07-24T17:55:43.039Z,99630.83
2018-07-24T17:58:10.626Z,99638.66
2018-07-24T18:00:38.297Z,99631.55
2018-07-24T18:03:06.189Z,99631.77
2018-07-24T18:05:33.813Z,99634.34
2018-07-24T18:08:01.466Z,99630.14
2018-07-24T18:10:29.124Z,99626.80
2018-07-24T18:12:57.717Z,99633.57
2018-07-24T18:15:25.432Z,99630.30
2018-07-24T18:17:53.085Z,99632.49
2018-07-24T18:20:21.062Z,99635.09
2018-07-24T18:22:48.960Z,99632.38
2018-07-24T18:25:16.704Z,99637.91
2018-07-24T18:27:44.451Z,99634.91
2018-07-24T18:30:12.182Z,99637.23
2018-07-24T18:32:39.830Z,99638.87
2018-07-24T18:35:08.451Z,99633.31
2018-07-24T18:37:36.212Z,99634.20
2018-07-24T18:40:04.200Z,99641.11
2018-07-24T18:42:31.874Z,99637.62
2018-07-24T18:44:59.472Z,99641.80
2018-07-24T18:47:27.240Z,99641.81
2018-07-24T18:49:55.128Z,99636.13
2018-07-24T18:52:22.814Z,99640.18
2018-07-24T18:54:50.622Z,99634.47
2018-07-24T18:57:18.330Z,99638.21
2018-07-24T18:59:46.152Z,99635.48
2018-07-24T19:02:13.906Z,99637.57
2018-07-24T19:04:42.335Z,99641.13
2018-07-24T19:07:10.369Z,99640.58
2018-07-24T19:09:38.008Z,99646.99
2018-07-24T19:12:05.755Z,99649.13
2018-07-24T19:14:33.976Z,99641.43
2018-07-24T19:17:01.738Z,99650.03
2018-07-24T19:19:29.401Z,99646.73
2018-07-24T19:21:57.271Z,99655.03
2018-07-24T19:24:25.139Z,99654.47
2018-07-24T19:26:52.843Z,99659.83
2018-07-24T19:29:21.509Z,99665.37
2018-07-24T19:31:49.265Z,99663.02
2018-07-24T19:34:17.130Z,99667.61
2018-07-24T19:36:45.423Z,99667.73
2018-07-24T19:39:13.101Z,99667.89
2018-07-24T19:41:40.892Z,99670.18
2018-07-24T19:44:09.141Z,99668.30
2018-07-24T19:46:36.971Z,99669.27
2018-07-24T19:49:05.109Z,99671.21
2018-07-24T19:51:32.899Z,99674.44
2018-07-24T19:54:01.613Z,99676.57
2018-07-24T19:56:29.787Z,99684.00
2018-07-24T19:58:57.927Z,99685.77
2018-07-24T20:01:25.712Z,99683.61
2018-07-24T20:03:53.522Z,99683.31
2018-07-24T20:06:21.320Z,99688.06
2018-07-24T20:08:49.030Z,99682.89
2018-07-24T20:11:16.873Z,99685.48
2018-07-24T20:13:44.686Z,99691.30
2018-07-24T20:16:12.780Z,99686.93
2018-07-24T20:18:40.706Z,99692.29
2018-07-24T20:21:08.561Z,99699.50
2018-07-24T20:23:36.227Z,99701.66
2018-07-24T20:26:03.954Z,99700.53
2018-07-24T20:28:31.715Z,99703.53
2018-07-24T20:30:59.558Z,99704.05
2018-07-24T20:33:27.194Z,99708.36
2018-07-24T20:35:54.958Z,99710.38
2018-07-24T20:38:22.660Z,99715.23
2018-07-24T20:40:50.377Z,99708.36
2018-07-24T20:43:18.110Z,99708.77
2018-07-24T20:45:45.819Z,99706.17
2018-07-24T20:48:13.503Z,99712.67
2018-07-24T20:50:46.176Z,99708.04
2018-07-24T20:53:13.962Z,99714.26
2018-07-24T20:55:41.832Z,99706.27
2018-07-24T20:58:09.559Z,99711.50
2018-07-24T21:00:37.351Z,99708.02
2018-07-24T21:03:04.986Z,99710.05
2018-07-24T21:05:32.857Z,99713.91
2018-07-24T21:08:00.474Z,99714.03
2018-07-24T21:10:28.092Z,99716.38
2018-07-24T21:12:55.757Z,99714.06
2018-07-24T21:15:23.591Z,99706.54
2018-07-24T21:17:51.266Z,99709.02
2018-07-24T21:20:19.008Z,99709.84
2018-07-24T21:22:46.630Z,99709.20
2018-07-24T21:25:14.585Z,99709.14
2018-07-24T21:27:42.141Z,99709.74
2018-07-24T21:30:10.257Z,99715.95
2018-07-24T21:32:37.929Z,99711.09
2018-07-24T21:35:05.718Z,99717.83
2018-07-24T21:37:33.348Z,99714.91
2018-07-24T21:40:01.082Z,99721.34
2018-07-24T21:42:28.730Z,99724.31
2018-07-24T21:44:56.293Z,99721.46
2018-07-24T21:47:24.548Z,99719.64
2018-07-24T21:49:52.146Z,99722.26
2018-07-24T21:52:19.787Z,99716.30
2018-07-24T21:54:47.435Z,99722.07
2018-07-24T21:57:15.019Z,99713.39
2018-07-24T21:59:42.670Z,99715.56
2018-07-24T22:02:10.251Z,99719.20
2018-07-24T22:04:37.890Z,99723.33
2018-07-24T22:07:05.502Z,99716.16
2018-07-24T22:09:33.146Z,99718.99
2018-07-24T22:12:00.757Z,99716.47
2018-07-24T22:14:28.341Z,99724.00
2018-07-24T22:16:55.911Z,99720.42
2018-07-24T22:19:23.551Z,99714.20
2018-07-24T22:21:51.177Z,99722.57
2018-07-24T22:24:18.753Z,99720.64
2018-07-24T22:26:46.315Z,99720.28
2018-07-24T22:29:14.213Z,99723.41
2018-07-24T22:31:41.786Z,99725.27
2018-07-24T22:34:09.366Z,99719.80
2018-07-24T22:36:37.002Z,99715.49
2018-07-24T22:39:07.336Z,99720.20
2018-07-24T22:41:35.834Z,99722.27
2018-07-24T22:44:03.619Z,99722.53
2018-07-24T22:46:31.317Z,99721.87
2018-07-24T22:48:58.944Z,99724.03
2018-07-24T22:51:26.544Z,99730.80
2018-07-24T22:53:54.167Z,99733.06
2018-07-24T22:56:21.790Z,99734.36
2018-07-24T22:58:49.420Z,99730.64
2018-07-24T23:01:17.026Z,99726.09
2018-07-24T23:03:44.606Z,99728.02
2018-07-24T23:06:12.256Z,99730.25
2018-07-24T23:08:39.846Z,99725.84
2018-07-24T23:11:07.460Z,99725.29
2018-07-24T23:13:34.966Z,99722.22
2018-07-24T23:16:02.553Z,99730.80
2018-07-24T23:18:30.153Z,99731.01
2018-07-24T23:20:57.777Z,99731.18
2018-07-24T23:23:25.427Z,99727.50
2018-07-24T23:25:53.784Z,99737.92
2018-07-24T23:28:21.801Z,99733.03
2018-07-24T23:30:49.401Z,99733.34
2018-07-24T23:33:16.952Z,99735.68
2018-07-24T23:35:44.476Z,99725.02
2018-07-24T23:38:12.067Z,99724.79
2018-07-24T23:40:39.642Z,99732.26
2018-07-24T23:43:07.299Z,99729.25
2018-07-24T23:45:34.823Z,99726.57
2018-07-24T23:48:02.490Z,99732.91
2018-07-24T23:50:30.098Z,99731.56
2018-07-24T23:52:58.210Z,99732.20
2018-07-24T23:55:25.832Z,99737.13
2018-07-24T23:57:53.450Z,99732.09
